sensor_id;sensor_type;location;lat;lon;timestamp;P1;durP1;ratioP1;P2;durP2;ratioP2
23747;SDS011;12054;53.662;10.126;2022-09-12T00:00:04;2.88;;;2.20;;
23747;SDS011;12054;53.662;10.126;2022-09-12T00:02:30;3.63;;;2.28;;
23747;SDS011;12054;53.662;10.126;2022-09-12T00:04:56;3.90;;;2.42;;
23747;SDS011;12054;53.662;10.126;2022-09-12T00:07:21;3.25;;;2.50;;
23747;SDS011;12054;53.662;10.126;2022-09-12T00:09:47;2.40;;;2.20;;
23747;SDS011;12054;53.662;10.126;2022-09-12T00:12:13;2.15;;;1.80;;
23747;SDS011;12054;53.662;10.126;2022-09-12T00:17:59;2.22;;;2.03;;
23747;SDS011;12054;53.662;10.126;2022-09-12T00:20:24;2.03;;;1.83;;
23747;SDS011;12054;53.662;10.126;2022-09-12T00:22:50;3.08;;;2.55;;
23747;SDS011;12054;53.662;10.126;2022-09-12T00:25:15;3.42;;;2.03;;
23747;SDS011;12054;53.662;10.126;2022-09-12T00:27:41;2.17;;;1.98;;
23747;SDS011;12054;53.662;10.126;2022-09-12T00:32:35;4.18;;;2.33;;
23747;SDS011;12054;53.662;10.126;2022-09-12T00:35:01;4.05;;;2.38;;
23747;SDS011;12054;53.662;10.126;2022-09-12T00:37:27;3.85;;;2.38;;
23747;SDS011;12054;53.662;10.126;2022-09-12T00:39:53;3.45;;;2.70;;
23747;SDS011;12054;53.662;10.126;2022-09-12T00:42:18;2.90;;;2.70;;
23747;SDS011;12054;53.662;10.126;2022-09-12T00:44:46;3.08;;;2.78;;
23747;SDS011;12054;53.662;10.126;2022-09-12T00:49:47;2.72;;;2.53;;
23747;SDS011;12054;53.662;10.126;2022-09-12T00:52:33;3.72;;;2.63;;
23747;SDS011;12054;53.662;10.126;2022-09-12T00:55:18;3.90;;;2.38;;
23747;SDS011;12054;53.662;10.126;2022-09-12T00:57:49;3.38;;;2.10;;
23747;SDS011;12054;53.662;10.126;2022-09-12T01:00:20;1.88;;;1.77;;
23747;SDS011;12054;53.662;10.126;2022-09-12T01:02:48;1.63;;;1.52;;
23747;SDS011;12054;53.662;10.126;2022-09-12T01:05:17;3.05;;;2.38;;
23747;SDS011;12054;53.662;10.126;2022-09-12T01:07:42;3.05;;;2.17;;
23747;SDS011;12054;53.662;10.126;2022-09-12T01:10:12;2.50;;;2.30;;
23747;SDS011;12054;53.662;10.126;2022-09-12T01:12:39;2.03;;;1.83;;
23747;SDS011;12054;53.662;10.126;2022-09-12T01:15:06;1.58;;;1.48;;
23747;SDS011;12054;53.662;10.126;2022-09-12T01:17:47;1.50;;;1.40;;
23747;SDS011;12054;53.662;10.126;2022-09-12T01:20:37;1.90;;;1.80;;
23747;SDS011;12054;53.662;10.126;2022-09-12T01:23:17;2.55;;;1.60;;
23747;SDS011;12054;53.662;10.126;2022-09-12T01:26:09;2.95;;;2.53;;
23747;SDS011;12054;53.662;10.126;2022-09-12T01:36:53;2.83;;;2.10;;
23747;SDS011;12054;53.662;10.126;2022-09-12T01:39:46;1.73;;;1.60;;
23747;SDS011;12054;53.662;10.126;2022-09-12T01:42:21;2.72;;;1.38;;
23747;SDS011;12054;53.662;10.126;2022-09-12T01:44:59;2.45;;;1.27;;
23747;SDS011;12054;53.662;10.126;2022-09-12T01:47:45;1.60;;;1.50;;
23747;SDS011;12054;53.662;10.126;2022-09-12T01:50:20;1.75;;;1.65;;
23747;SDS011;12054;53.662;10.126;2022-09-12T02:01:32;2.95;;;1.90;;
23747;SDS011;12054;53.662;10.126;2022-09-12T02:04:03;2.83;;;2.30;;
23747;SDS011;12054;53.662;10.126;2022-09-12T02:11:58;2.50;;;2.30;;
23747;SDS011;12054;53.662;10.126;2022-09-12T02:14:26;3.67;;;2.47;;
23747;SDS011;12054;53.662;10.126;2022-09-12T02:17:12;6.68;;;2.45;;
23747;SDS011;12054;53.662;10.126;2022-09-12T02:19:43;3.40;;;2.60;;
23747;SDS011;12054;53.662;10.126;2022-09-12T02:22:22;3.38;;;2.28;;
23747;SDS011;12054;53.662;10.126;2022-09-12T02:24:53;3.53;;;3.00;;
23747;SDS011;12054;53.662;10.126;2022-09-12T02:29:48;4.82;;;3.10;;
23747;SDS011;12054;53.662;10.126;2022-09-12T02:32:21;4.38;;;3.15;;
23747;SDS011;12054;53.662;10.126;2022-09-12T02:40:27;4.97;;;3.72;;
23747;SDS011;12054;53.662;10.126;2022-09-12T02:42:53;5.70;;;4.15;;
23747;SDS011;12054;53.662;10.126;2022-09-12T02:45:19;5.63;;;4.72;;
23747;SDS011;12054;53.662;10.126;2022-09-12T02:47:48;4.43;;;4.00;;
23747;SDS011;12054;53.662;10.126;2022-09-12T02:50:22;3.88;;;3.40;;
23747;SDS011;12054;53.662;10.126;2022-09-12T02:52:47;3.88;;;3.47;;
23747;SDS011;12054;53.662;10.126;2022-09-12T02:55:15;5.85;;;3.67;;
23747;SDS011;12054;53.662;10.126;2022-09-12T02:57:41;5.20;;;3.10;;
23747;SDS011;12054;53.662;10.126;2022-09-12T03:00:07;3.75;;;2.85;;
23747;SDS011;12054;53.662;10.126;2022-09-12T03:05:57;5.03;;;3.30;;
23747;SDS011;12054;53.662;10.126;2022-09-12T03:08:32;2.90;;;2.60;;
23747;SDS011;12054;53.662;10.126;2022-09-12T03:17:22;2.75;;;2.50;;
23747;SDS011;12054;53.662;10.126;2022-09-12T03:22:54;1.63;;;1.25;;
23747;SDS011;12054;53.662;10.126;2022-09-12T03:25:25;1.58;;;1.48;;
23747;SDS011;12054;53.662;10.126;2022-09-12T03:28:07;1.88;;;1.70;;
23747;SDS011;12054;53.662;10.126;2022-09-12T03:30:36;2.00;;;1.83;;
23747;SDS011;12054;53.662;10.126;2022-09-12T03:33:03;2.38;;;2.17;;
23747;SDS011;12054;53.662;10.126;2022-09-12T03:35:29;2.50;;;2.30;;
23747;SDS011;12054;53.662;10.126;2022-09-12T03:37:55;2.42;;;2.22;;
23747;SDS011;12054;53.662;10.126;2022-09-12T03:40:20;2.53;;;2.22;;
23747;SDS011;12054;53.662;10.126;2022-09-12T03:42:46;2.22;;;2.03;;
23747;SDS011;12054;53.662;10.126;2022-09-12T03:45:11;2.00;;;1.90;;
23747;SDS011;12054;53.662;10.126;2022-09-12T03:47:37;3.70;;;2.15;;
23747;SDS011;12054;53.662;10.126;2022-09-12T03:50:04;1.90;;;1.80;;
23747;SDS011;12054;53.662;10.126;2022-09-12T03:52:30;2.88;;;2.22;;
23747;SDS011;12054;53.662;10.126;2022-09-12T03:54:56;2.38;;;2.17;;
23747;SDS011;12054;53.662;10.126;2022-09-12T03:57:22;2.30;;;2.10;;
23747;SDS011;12054;53.662;10.126;2022-09-12T03:59:47;4.35;;;2.42;;
23747;SDS011;12054;53.662;10.126;2022-09-12T04:02:14;3.55;;;2.65;;
23747;SDS011;12054;53.662;10.126;2022-09-12T04:04:40;2.53;;;2.33;;
23747;SDS011;12054;53.662;10.126;2022-09-12T04:07:09;2.67;;;2.20;;
23747;SDS011;12054;53.662;10.126;2022-09-12T04:09:37;2.20;;;2.00;;
23747;SDS011;12054;53.662;10.126;2022-09-12T04:12:02;3.40;;;1.85;;
23747;SDS011;12054;53.662;10.126;2022-09-12T04:14:28;1.60;;;1.50;;
23747;SDS011;12054;53.662;10.126;2022-09-12T04:16:54;1.70;;;1.60;;
23747;SDS011;12054;53.662;10.126;2022-09-12T04:19:19;2.03;;;1.30;;
23747;SDS011;12054;53.662;10.126;2022-09-12T04:21:45;2.20;;;1.40;;
23747;SDS011;12054;53.662;10.126;2022-09-12T04:24:10;1.05;;;1.00;;
23747;SDS011;12054;53.662;10.126;2022-09-12T04:26:36;1.50;;;1.35;;
23747;SDS011;12054;53.662;10.126;2022-09-12T04:29:01;1.70;;;1.60;;
23747;SDS011;12054;53.662;10.126;2022-09-12T04:31:27;3.20;;;1.60;;
23747;SDS011;12054;53.662;10.126;2022-09-12T04:33:53;2.20;;;2.00;;
23747;SDS011;12054;53.662;10.126;2022-09-12T04:36:24;3.45;;;2.15;;
23747;SDS011;12054;53.662;10.126;2022-09-12T04:38:50;2.28;;;2.08;;
23747;SDS011;12054;53.662;10.126;2022-09-12T04:41:17;1.90;;;1.80;;
23747;SDS011;12054;53.662;10.126;2022-09-12T04:43:47;2.00;;;1.80;;
23747;SDS011;12054;53.662;10.126;2022-09-12T04:46:17;1.90;;;1.70;;
23747;SDS011;12054;53.662;10.126;2022-09-12T04:48:44;1.88;;;1.70;;
23747;SDS011;12054;53.662;10.126;2022-09-12T04:51:11;3.58;;;1.92;;
23747;SDS011;12054;53.662;10.126;2022-09-12T04:53:39;3.65;;;2.20;;
23747;SDS011;12054;53.662;10.126;2022-09-12T04:56:05;2.28;;;1.70;;
23747;SDS011;12054;53.662;10.126;2022-09-12T04:58:33;1.98;;;1.70;;
23747;SDS011;12054;53.662;10.126;2022-09-12T05:01:05;2.55;;;1.65;;
23747;SDS011;12054;53.662;10.126;2022-09-12T05:03:33;3.25;;;2.05;;
23747;SDS011;12054;53.662;10.126;2022-09-12T05:06:00;2.00;;;1.80;;
23747;SDS011;12054;53.662;10.126;2022-09-12T05:08:27;2.22;;;1.90;;
23747;SDS011;12054;53.662;10.126;2022-09-12T05:10:53;2.13;;;1.15;;
23747;SDS011;12054;53.662;10.126;2022-09-12T05:13:19;2.80;;;1.35;;
23747;SDS011;12054;53.662;10.126;2022-09-12T05:15:52;1.85;;;1.05;;
23747;SDS011;12054;53.662;10.126;2022-09-12T05:18:19;2.03;;;1.20;;
23747;SDS011;12054;53.662;10.126;2022-09-12T05:20:45;4.03;;;1.50;;
23747;SDS011;12054;53.662;10.126;2022-09-12T05:23:11;1.95;;;1.75;;
23747;SDS011;12054;53.662;10.126;2022-09-12T05:25:36;1.88;;;1.77;;
23747;SDS011;12054;53.662;10.126;2022-09-12T05:28:02;1.98;;;1.80;;
23747;SDS011;12054;53.662;10.126;2022-09-12T05:30:27;2.47;;;1.80;;
23747;SDS011;12054;53.662;10.126;2022-09-12T05:32:53;2.95;;;1.90;;
23747;SDS011;12054;53.662;10.126;2022-09-12T05:35:18;2.13;;;1.80;;
23747;SDS011;12054;53.662;10.126;2022-09-12T05:37:44;2.30;;;2.10;;
23747;SDS011;12054;53.662;10.126;2022-09-12T05:40:09;2.28;;;1.52;;
23747;SDS011;12054;53.662;10.126;2022-09-12T05:42:35;2.38;;;2.00;;
23747;SDS011;12054;53.662;10.126;2022-09-12T05:45:00;2.70;;;2.08;;
23747;SDS011;12054;53.662;10.126;2022-09-12T05:47:26;2.22;;;1.83;;
23747;SDS011;12054;53.662;10.126;2022-09-12T05:49:51;1.92;;;1.83;;
23747;SDS011;12054;53.662;10.126;2022-09-12T05:52:17;6.47;;;2.55;;
23747;SDS011;12054;53.662;10.126;2022-09-12T05:54:45;3.65;;;2.90;;
23747;SDS011;12054;53.662;10.126;2022-09-12T05:57:12;3.55;;;2.90;;
23747;SDS011;12054;53.662;10.126;2022-09-12T05:59:37;3.28;;;2.65;;
23747;SDS011;12054;53.662;10.126;2022-09-12T06:02:03;2.70;;;2.50;;
23747;SDS011;12054;53.662;10.126;2022-09-12T06:04:28;2.80;;;2.58;;
23747;SDS011;12054;53.662;10.126;2022-09-12T06:06:54;3.20;;;2.90;;
23747;SDS011;12054;53.662;10.126;2022-09-12T06:09:19;3.80;;;3.40;;
23747;SDS011;12054;53.662;10.126;2022-09-12T06:11:45;6.60;;;3.00;;
23747;SDS011;12054;53.662;10.126;2022-09-12T06:14:11;4.97;;;3.72;;
23747;SDS011;12054;53.662;10.126;2022-09-12T06:16:38;4.22;;;3.28;;
23747;SDS011;12054;53.662;10.126;2022-09-12T06:19:05;8.73;;;4.18;;
23747;SDS011;12054;53.662;10.126;2022-09-12T06:21:35;7.72;;;5.47;;
23747;SDS011;12054;53.662;10.126;2022-09-12T06:24:01;10.50;;;7.65;;
23747;SDS011;12054;53.662;10.126;2022-09-12T06:26:27;12.18;;;8.68;;
23747;SDS011;12054;53.662;10.126;2022-09-12T06:28:54;10.55;;;8.93;;
23747;SDS011;12054;53.662;10.126;2022-09-12T06:31:22;7.47;;;6.55;;
23747;SDS011;12054;53.662;10.126;2022-09-12T06:33:50;7.82;;;6.50;;
23747;SDS011;12054;53.662;10.126;2022-09-12T06:36:26;8.93;;;7.28;;
23747;SDS011;12054;53.662;10.126;2022-09-12T06:38:57;7.20;;;6.00;;
23747;SDS011;12054;53.662;10.126;2022-09-12T06:41:25;8.18;;;6.95;;
23747;SDS011;12054;53.662;10.126;2022-09-12T06:43:52;9.48;;;7.30;;
23747;SDS011;12054;53.662;10.126;2022-09-12T06:46:18;10.98;;;8.35;;
23747;SDS011;12054;53.662;10.126;2022-09-12T06:48:44;13.77;;;10.02;;
23747;SDS011;12054;53.662;10.126;2022-09-12T06:51:13;13.45;;;10.60;;
23747;SDS011;12054;53.662;10.126;2022-09-12T06:53:41;14.70;;;9.30;;
23747;SDS011;12054;53.662;10.126;2022-09-12T06:56:09;12.73;;;9.77;;
23747;SDS011;12054;53.662;10.126;2022-09-12T06:58:37;13.88;;;10.13;;
23747;SDS011;12054;53.662;10.126;2022-09-12T07:01:07;13.13;;;10.32;;
23747;SDS011;12054;53.662;10.126;2022-09-12T07:03:36;12.27;;;10.25;;
23747;SDS011;12054;53.662;10.126;2022-09-12T07:06:10;11.98;;;10.02;;
23747;SDS011;12054;53.662;10.126;2022-09-12T07:08:37;10.57;;;9.38;;
23747;SDS011;12054;53.662;10.126;2022-09-12T07:11:07;8.60;;;7.70;;
23747;SDS011;12054;53.662;10.126;2022-09-12T07:13:35;8.38;;;7.07;;
23747;SDS011;12054;53.662;10.126;2022-09-12T07:16:02;10.77;;;7.00;;
23747;SDS011;12054;53.662;10.126;2022-09-12T07:18:29;8.00;;;6.90;;
23747;SDS011;12054;53.662;10.126;2022-09-12T07:20:55;8.27;;;6.80;;
23747;SDS011;12054;53.662;10.126;2022-09-12T07:23:23;7.20;;;6.43;;
23747;SDS011;12054;53.662;10.126;2022-09-12T07:25:52;7.80;;;6.45;;
23747;SDS011;12054;53.662;10.126;2022-09-12T07:28:18;8.88;;;6.10;;
23747;SDS011;12054;53.662;10.126;2022-09-12T07:30:44;8.80;;;5.95;;
23747;SDS011;12054;53.662;10.126;2022-09-12T07:33:09;6.07;;;5.47;;
23747;SDS011;12054;53.662;10.126;2022-09-12T07:35:35;5.53;;;4.85;;
23747;SDS011;12054;53.662;10.126;2022-09-12T07:38:01;6.07;;;5.47;;
23747;SDS011;12054;53.662;10.126;2022-09-12T07:40:26;5.68;;;5.03;;
23747;SDS011;12054;53.662;10.126;2022-09-12T07:42:52;5.60;;;5.10;;
23747;SDS011;12054;53.662;10.126;2022-09-12T07:45:17;5.95;;;5.35;;
23747;SDS011;12054;53.662;10.126;2022-09-12T07:47:43;5.65;;;4.97;;
23747;SDS011;12054;53.662;10.126;2022-09-12T07:50:08;8.25;;;5.40;;
23747;SDS011;12054;53.662;10.126;2022-09-12T07:52:34;5.13;;;4.63;;
23747;SDS011;12054;53.662;10.126;2022-09-12T07:55:00;5.00;;;4.50;;
23747;SDS011;12054;53.662;10.126;2022-09-12T07:57:26;4.90;;;4.40;;
23747;SDS011;12054;53.662;10.126;2022-09-12T07:59:52;6.75;;;5.32;;
23747;SDS011;12054;53.662;10.126;2022-09-12T08:02:17;5.13;;;4.63;;
23747;SDS011;12054;53.662;10.126;2022-09-12T08:04:43;5.35;;;4.40;;
23747;SDS011;12054;53.662;10.126;2022-09-12T08:07:09;5.07;;;4.57;;
23747;SDS011;12054;53.662;10.126;2022-09-12T08:09:34;4.68;;;4.28;;
23747;SDS011;12054;53.662;10.126;2022-09-12T08:12:00;4.95;;;4.25;;
23747;SDS011;12054;53.662;10.126;2022-09-12T08:14:26;5.95;;;4.70;;
23747;SDS011;12054;53.662;10.126;2022-09-12T08:16:51;5.22;;;4.72;;
23747;SDS011;12054;53.662;10.126;2022-09-12T08:19:17;4.40;;;4.00;;
23747;SDS011;12054;53.662;10.126;2022-09-12T08:21:43;4.07;;;3.67;;
23747;SDS011;12054;53.662;10.126;2022-09-12T08:24:09;4.30;;;3.90;;
23747;SDS011;12054;53.662;10.126;2022-09-12T08:26:36;6.05;;;4.03;;
23747;SDS011;12054;53.662;10.126;2022-09-12T08:29:01;3.88;;;3.58;;
23747;SDS011;12054;53.662;10.126;2022-09-12T08:31:28;4.03;;;3.63;;
23747;SDS011;12054;53.662;10.126;2022-09-12T08:33:56;4.65;;;4.18;;
23747;SDS011;12054;53.662;10.126;2022-09-12T08:36:22;3.45;;;3.15;;
23747;SDS011;12054;53.662;10.126;2022-09-12T08:38:52;4.20;;;3.63;;
23747;SDS011;12054;53.662;10.126;2022-09-12T08:41:37;5.07;;;3.17;;
23747;SDS011;12054;53.662;10.126;2022-09-12T08:52:13;3.70;;;3.40;;
23747;SDS011;12054;53.662;10.126;2022-09-12T08:55:00;3.65;;;3.25;;
23747;SDS011;12054;53.662;10.126;2022-09-12T08:57:27;3.58;;;3.28;;
23747;SDS011;12054;53.662;10.126;2022-09-12T08:59:53;3.55;;;3.25;;
23747;SDS011;12054;53.662;10.126;2022-09-12T09:02:36;4.00;;;3.55;;
23747;SDS011;12054;53.662;10.126;2022-09-12T09:08:20;3.80;;;3.28;;
23747;SDS011;12054;53.662;10.126;2022-09-12T09:11:17;3.70;;;3.25;;
23747;SDS011;12054;53.662;10.126;2022-09-12T09:16:50;3.03;;;2.78;;
23747;SDS011;12054;53.662;10.126;2022-09-12T09:19:22;3.22;;;2.50;;
23747;SDS011;12054;53.662;10.126;2022-09-12T09:21:57;2.72;;;2.45;;
23747;SDS011;12054;53.662;10.126;2022-09-12T09:24:32;3.53;;;2.58;;
23747;SDS011;12054;53.662;10.126;2022-09-12T09:27:04;2.70;;;2.30;;
23747;SDS011;12054;53.662;10.126;2022-09-12T09:29:38;2.70;;;2.50;;
23747;SDS011;12054;53.662;10.126;2022-09-12T09:32:17;2.20;;;2.00;;
23747;SDS011;12054;53.662;10.126;2022-09-12T09:34:47;2.30;;;2.10;;
23747;SDS011;12054;53.662;10.126;2022-09-12T09:45:42;2.75;;;1.98;;
23747;SDS011;12054;53.662;10.126;2022-09-12T09:50:45;1.73;;;1.60;;
23747;SDS011;12054;53.662;10.126;2022-09-12T09:56:00;2.00;;;1.70;;
23747;SDS011;12054;53.662;10.126;2022-09-12T09:58:33;2.08;;;1.38;;
23747;SDS011;12054;53.662;10.126;2022-09-12T10:01:00;1.55;;;1.40;;
23747;SDS011;12054;53.662;10.126;2022-09-12T10:03:31;1.50;;;1.40;;
23747;SDS011;12054;53.662;10.126;2022-09-12T10:08:47;1.33;;;1.13;;
23747;SDS011;12054;53.662;10.126;2022-09-12T10:13:40;1.80;;;1.20;;
23747;SDS011;12054;53.662;10.126;2022-09-12T10:16:29;0.90;;;0.90;;
23747;SDS011;12054;53.662;10.126;2022-09-12T10:18:55;1.05;;;0.95;;
23747;SDS011;12054;53.662;10.126;2022-09-12T10:21:27;1.20;;;1.10;;
23747;SDS011;12054;53.662;10.126;2022-09-12T10:24:13;1.73;;;1.23;;
23747;SDS011;12054;53.662;10.126;2022-09-12T10:26:48;2.58;;;1.30;;
23747;SDS011;12054;53.662;10.126;2022-09-12T10:29:26;2.05;;;1.10;;
23747;SDS011;12054;53.662;10.126;2022-09-12T10:31:58;1.17;;;1.08;;
23747;SDS011;12054;53.662;10.126;2022-09-12T10:34:37;1.75;;;1.20;;
23747;SDS011;12054;53.662;10.126;2022-09-12T10:37:18;1.42;;;1.30;;
23747;SDS011;12054;53.662;10.126;2022-09-12T10:39:57;2.65;;;1.40;;
23747;SDS011;12054;53.662;10.126;2022-09-12T10:45:23;1.50;;;1.40;;
23747;SDS011;12054;53.662;10.126;2022-09-12T10:47:53;1.42;;;1.33;;
23747;SDS011;12054;53.662;10.126;2022-09-12T10:50:23;2.00;;;1.30;;
23747;SDS011;12054;53.662;10.126;2022-09-12T10:53:11;2.92;;;1.30;;
23747;SDS011;12054;53.662;10.126;2022-09-12T10:55:41;2.40;;;1.33;;
23747;SDS011;12054;53.662;10.126;2022-09-12T10:58:45;2.92;;;1.80;;
23747;SDS011;12054;53.662;10.126;2022-09-12T11:01:17;1.83;;;1.50;;
23747;SDS011;12054;53.662;10.126;2022-09-12T11:12:26;2.08;;;1.50;;
23747;SDS011;12054;53.662;10.126;2022-09-12T11:15:11;2.20;;;2.00;;
23747;SDS011;12054;53.662;10.126;2022-09-12T11:34:41;2.65;;;2.00;;
23747;SDS011;12054;53.662;10.126;2022-09-12T11:37:19;2.95;;;2.00;;
23747;SDS011;12054;53.662;10.126;2022-09-12T11:42:55;2.78;;;2.53;;
23747;SDS011;12054;53.662;10.126;2022-09-12T11:45:38;2.42;;;2.22;;
23747;SDS011;12054;53.662;10.126;2022-09-12T11:48:18;2.80;;;2.55;;
23747;SDS011;12054;53.662;10.126;2022-09-12T11:50:51;2.50;;;2.25;;
23747;SDS011;12054;53.662;10.126;2022-09-12T11:53:18;2.35;;;2.13;;
23747;SDS011;12054;53.662;10.126;2022-09-12T11:55:58;2.63;;;2.40;;
23747;SDS011;12054;53.662;10.126;2022-09-12T11:58:30;2.70;;;2.05;;
23747;SDS011;12054;53.662;10.126;2022-09-12T12:01:17;3.38;;;2.10;;
23747;SDS011;12054;53.662;10.126;2022-09-12T12:03:45;2.95;;;2.15;;
23747;SDS011;12054;53.662;10.126;2022-09-12T12:08:55;2.22;;;2.03;;
23747;SDS011;12054;53.662;10.126;2022-09-12T12:11:43;2.42;;;2.20;;
23747;SDS011;12054;53.662;10.126;2022-09-12T12:14:13;2.63;;;2.42;;
23747;SDS011;12054;53.662;10.126;2022-09-12T12:16:48;3.90;;;2.35;;
23747;SDS011;12054;53.662;10.126;2022-09-12T12:21:40;2.60;;;2.40;;
23747;SDS011;12054;53.662;10.126;2022-09-12T12:34:35;2.78;;;1.85;;
23747;SDS011;12054;53.662;10.126;2022-09-12T12:40:17;2.25;;;2.08;;
23747;SDS011;12054;53.662;10.126;2022-09-12T12:42:56;2.53;;;2.33;;
23747;SDS011;12054;53.662;10.126;2022-09-12T12:47:52;2.20;;;2.00;;
23747;SDS011;12054;53.662;10.126;2022-09-12T12:50:27;1.95;;;1.85;;
23747;SDS011;12054;53.662;10.126;2022-09-12T12:52:54;2.78;;;2.42;;
23747;SDS011;12054;53.662;10.126;2022-09-12T12:55:31;2.75;;;2.22;;
23747;SDS011;12054;53.662;10.126;2022-09-12T13:01:02;1.88;;;1.77;;
23747;SDS011;12054;53.662;10.126;2022-09-12T13:03:35;1.77;;;1.67;;
23747;SDS011;12054;53.662;10.126;2022-09-12T13:06:04;2.35;;;2.00;;
23747;SDS011;12054;53.662;10.126;2022-09-12T13:08:34;2.53;;;2.33;;
23747;SDS011;12054;53.662;10.126;2022-09-12T13:11:06;2.20;;;2.00;;
23747;SDS011;12054;53.662;10.126;2022-09-12T13:13:34;1.73;;;1.63;;
23747;SDS011;12054;53.662;10.126;2022-09-12T13:16:02;2.10;;;1.90;;
23747;SDS011;12054;53.662;10.126;2022-09-12T13:18:37;2.30;;;2.03;;
23747;SDS011;12054;53.662;10.126;2022-09-12T13:21:07;3.72;;;2.00;;
23747;SDS011;12054;53.662;10.126;2022-09-12T13:23:38;1.85;;;1.70;;
23747;SDS011;12054;53.662;10.126;2022-09-12T13:26:09;2.33;;;2.05;;
23747;SDS011;12054;53.662;10.126;2022-09-12T13:28:37;1.90;;;1.70;;
23747;SDS011;12054;53.662;10.126;2022-09-12T13:31:18;1.80;;;1.70;;
23747;SDS011;12054;53.662;10.126;2022-09-12T13:33:51;3.85;;;2.08;;
23747;SDS011;12054;53.662;10.126;2022-09-12T13:39:25;2.13;;;1.92;;
23747;SDS011;12054;53.662;10.126;2022-09-12T13:44:56;3.45;;;2.17;;
23747;SDS011;12054;53.662;10.126;2022-09-12T13:47:33;2.70;;;1.95;;
23747;SDS011;12054;53.662;10.126;2022-09-12T13:50:06;3.30;;;2.10;;
23747;SDS011;12054;53.662;10.126;2022-09-12T13:52:33;1.95;;;1.80;;
23747;SDS011;12054;53.662;10.126;2022-09-12T13:55:01;2.80;;;2.13;;
23747;SDS011;12054;53.662;10.126;2022-09-12T13:57:33;1.92;;;1.83;;
23747;SDS011;12054;53.662;10.126;2022-09-12T14:00:05;2.25;;;2.05;;
23747;SDS011;12054;53.662;10.126;2022-09-12T14:02:38;2.33;;;2.00;;
23747;SDS011;12054;53.662;10.126;2022-09-12T14:05:11;2.47;;;2.28;;
23747;SDS011;12054;53.662;10.126;2022-09-12T14:07:51;2.60;;;2.10;;
23747;SDS011;12054;53.662;10.126;2022-09-12T14:13:03;3.00;;;2.05;;
23747;SDS011;12054;53.662;10.126;2022-09-12T14:15:34;2.35;;;2.05;;
23747;SDS011;12054;53.662;10.126;2022-09-12T14:18:02;2.00;;;1.83;;
23747;SDS011;12054;53.662;10.126;2022-09-12T14:20:31;2.47;;;2.00;;
23747;SDS011;12054;53.662;10.126;2022-09-12T14:23:02;2.35;;;2.13;;
23747;SDS011;12054;53.662;10.126;2022-09-12T14:25:53;2.00;;;1.70;;
23747;SDS011;12054;53.662;10.126;2022-09-12T14:28:34;1.80;;;1.70;;
23747;SDS011;12054;53.662;10.126;2022-09-12T14:31:19;2.22;;;1.80;;
23747;SDS011;12054;53.662;10.126;2022-09-12T14:34:07;2.03;;;1.80;;
23747;SDS011;12054;53.662;10.126;2022-09-12T14:36:46;2.65;;;2.08;;
23747;SDS011;12054;53.662;10.126;2022-09-12T14:41:46;2.72;;;2.17;;
23747;SDS011;12054;53.662;10.126;2022-09-12T14:44:16;2.20;;;1.92;;
23747;SDS011;12054;53.662;10.126;2022-09-12T14:46:46;3.25;;;2.00;;
23747;SDS011;12054;53.662;10.126;2022-09-12T14:49:17;2.00;;;1.90;;
23747;SDS011;12054;53.662;10.126;2022-09-12T14:52:02;1.70;;;1.60;;
23747;SDS011;12054;53.662;10.126;2022-09-12T14:56:59;3.25;;;2.10;;
23747;SDS011;12054;53.662;10.126;2022-09-12T15:02:23;1.90;;;1.80;;
23747;SDS011;12054;53.662;10.126;2022-09-12T15:04:54;2.95;;;1.90;;
23747;SDS011;12054;53.662;10.126;2022-09-12T15:07:36;2.35;;;2.20;;
23747;SDS011;12054;53.662;10.126;2022-09-12T15:13:38;2.25;;;2.05;;
23747;SDS011;12054;53.662;10.126;2022-09-12T15:15:50;2.33;;;2.13;;
23747;SDS011;12054;53.662;10.126;2022-09-12T15:18:26;2.20;;;2.00;;
23747;SDS011;12054;53.662;10.126;2022-09-12T15:20:54;2.20;;;2.00;;
23747;SDS011;12054;53.662;10.126;2022-09-12T15:23:32;3.25;;;2.03;;
23747;SDS011;12054;53.662;10.126;2022-09-12T15:25:59;2.03;;;1.83;;
23747;SDS011;12054;53.662;10.126;2022-09-12T15:28:24;2.30;;;2.10;;
23747;SDS011;12054;53.662;10.126;2022-09-12T15:30:51;3.30;;;2.13;;
23747;SDS011;12054;53.662;10.126;2022-09-12T15:33:19;2.28;;;2.17;;
23747;SDS011;12054;53.662;10.126;2022-09-12T15:35:48;3.40;;;2.00;;
23747;SDS011;12054;53.662;10.126;2022-09-12T15:38:14;1.98;;;1.88;;
23747;SDS011;12054;53.662;10.126;2022-09-12T15:40:40;2.20;;;2.00;;
23747;SDS011;12054;53.662;10.126;2022-09-12T15:43:08;2.33;;;2.00;;
23747;SDS011;12054;53.662;10.126;2022-09-12T15:45:35;2.70;;;2.13;;
23747;SDS011;12054;53.662;10.126;2022-09-12T15:48:01;2.97;;;2.25;;
23747;SDS011;12054;53.662;10.126;2022-09-12T15:50:28;2.35;;;1.92;;
23747;SDS011;12054;53.662;10.126;2022-09-12T15:52:54;2.67;;;2.20;;
23747;SDS011;12054;53.662;10.126;2022-09-12T15:55:21;2.10;;;1.90;;
23747;SDS011;12054;53.662;10.126;2022-09-12T15:57:49;2.40;;;2.20;;
23747;SDS011;12054;53.662;10.126;2022-09-12T16:00:15;3.75;;;2.25;;
23747;SDS011;12054;53.662;10.126;2022-09-12T16:02:42;2.92;;;2.22;;
23747;SDS011;12054;53.662;10.126;2022-09-12T16:05:13;3.95;;;2.70;;
23747;SDS011;12054;53.662;10.126;2022-09-12T16:07:41;2.45;;;1.98;;
23747;SDS011;12054;53.662;10.126;2022-09-12T16:10:09;2.03;;;1.90;;
23747;SDS011;12054;53.662;10.126;2022-09-12T16:12:38;2.83;;;2.63;;
23747;SDS011;12054;53.662;10.126;2022-09-12T16:15:04;4.40;;;2.10;;
23747;SDS011;12054;53.662;10.126;2022-09-12T16:17:30;3.08;;;2.10;;
23747;SDS011;12054;53.662;10.126;2022-09-12T16:19:56;2.38;;;2.03;;
23747;SDS011;12054;53.662;10.126;2022-09-12T16:22:21;3.75;;;2.38;;
23747;SDS011;12054;53.662;10.126;2022-09-12T16:24:48;2.17;;;1.98;;
23747;SDS011;12054;53.662;10.126;2022-09-12T16:27:13;2.85;;;2.30;;
23747;SDS011;12054;53.662;10.126;2022-09-12T16:29:39;2.83;;;2.10;;
23747;SDS011;12054;53.662;10.126;2022-09-12T16:32:05;2.50;;;2.00;;
23747;SDS011;12054;53.662;10.126;2022-09-12T16:34:30;2.47;;;2.20;;
23747;SDS011;12054;53.662;10.126;2022-09-12T16:36:56;3.90;;;2.10;;
23747;SDS011;12054;53.662;10.126;2022-09-12T16:39:21;2.40;;;2.08;;
23747;SDS011;12054;53.662;10.126;2022-09-12T16:41:47;2.55;;;2.35;;
23747;SDS011;12054;53.662;10.126;2022-09-12T16:44:12;4.38;;;2.40;;
23747;SDS011;12054;53.662;10.126;2022-09-12T16:46:38;3.20;;;2.40;;
23747;SDS011;12054;53.662;10.126;2022-09-12T16:49:03;3.00;;;2.80;;
23747;SDS011;12054;53.662;10.126;2022-09-12T16:51:31;3.13;;;2.83;;
23747;SDS011;12054;53.662;10.126;2022-09-12T16:53:59;3.20;;;2.90;;
23747;SDS011;12054;53.662;10.126;2022-09-12T16:56:25;3.92;;;3.20;;
23747;SDS011;12054;53.662;10.126;2022-09-12T16:58:51;5.05;;;3.22;;
23747;SDS011;12054;53.662;10.126;2022-09-12T17:01:18;3.85;;;2.88;;
23747;SDS011;12054;53.662;10.126;2022-09-12T17:03:51;3.92;;;3.10;;
23747;SDS011;12054;53.662;10.126;2022-09-12T17:06:18;4.15;;;2.90;;
23747;SDS011;12054;53.662;10.126;2022-09-12T17:08:45;3.63;;;2.90;;
23747;SDS011;12054;53.662;10.126;2022-09-12T17:11:13;3.33;;;3.03;;
23747;SDS011;12054;53.662;10.126;2022-09-12T17:13:50;3.53;;;2.92;;
23747;SDS011;12054;53.662;10.126;2022-09-12T17:16:17;4.07;;;2.97;;
23747;SDS011;12054;53.662;10.126;2022-09-12T17:18:44;3.25;;;2.97;;
23747;SDS011;12054;53.662;10.126;2022-09-12T17:21:10;3.55;;;3.25;;
23747;SDS011;12054;53.662;10.126;2022-09-12T17:23:36;4.68;;;3.17;;
23747;SDS011;12054;53.662;10.126;2022-09-12T17:26:03;6.00;;;3.60;;
23747;SDS011;12054;53.662;10.126;2022-09-12T17:28:30;5.32;;;3.50;;